»·PEaware :: PAA1 KLAX-KSFO

PAA1 :: KLAX-KSFO

FLIGHT INFORMATION

Flight Status: Arrived
Operator:
PanAm
More flights by this operator :: More flights under this callsign
Pilot: Jackson S. (24351)
Aircraft: MCDONNELL-DOUGLAS SKYTRAIN C-47
(DC3)
More flights by this aircraft type
Origin: KLAX Los Angeles Intl
United States
Destination: KSFO San Francisco Intl
United States
More flights between these airports :: More routes between these airports
Route: +
File this flight plan on PilotEdge
Remarks:
Altitude:
(Current/Filed)
12,500ft
Speed:
(Current/Filed)
0kts
Departed: 02-Sep-19 02:35 PM
Arrived: 02-Sep-19 04:22 PM
Distance/Time
Traveled:
293nm/1:47
Distance/Time
To Go:
Arrived

Flight Plot

Page will automatically refresh every two minutes.


Map Options




Map Legend


Flown Route
Filed Route
Departure Airport
Arrival Airport
Navaid (VOR, NDB)
Fix

Horizontal Profiles

Position Reports

Time Latitude Longitude Heading Altitude Ground
Speed
02-Sep-19 14:16 33.933144 -118.398546 263 111ft 0kts
02-Sep-19 14:17 33.933144 -118.398546 263 111ft 0kts
02-Sep-19 14:18 33.933131 -118.398722 292 111ft 1kts
02-Sep-19 14:19 33.933135 -118.398736 292 111ft 0kts
02-Sep-19 14:20 33.933135 -118.398736 292 111ft 0kts
02-Sep-19 14:21 33.933406 -118.398369 24 111ft 10kts
02-Sep-19 14:22 33.933499 -118.398375 336 111ft 6kts
02-Sep-19 14:23 33.933647 -118.398738 140 111ft 0kts
02-Sep-19 14:24 33.933647 -118.398738 140 111ft 0kts
02-Sep-19 14:25 33.933591 -118.398683 140 111ft 0kts
02-Sep-19 14:26 33.934260 -118.398321 333 111ft 0kts
02-Sep-19 14:27 33.934692 -118.398141 91 111ft 9kts
02-Sep-19 14:28 33.935034 -118.393470 83 111ft 22kts
02-Sep-19 14:28 33.935530 -118.388789 81 111ft 11kts
02-Sep-19 14:30 33.935811 -118.385814 78 111ft 7kts
02-Sep-19 14:31 33.936050 -118.383461 82 111ft 0kts
02-Sep-19 14:31 33.936050 -118.383460 82 111ft 0kts
02-Sep-19 14:32 33.936062 -118.383355 82 111ft 0kts
02-Sep-19 14:34 33.936070 -118.383282 82 111ft 0kts
02-Sep-19 14:35 33.936750 -118.390446 261 162ft 80kts
02-Sep-19 14:35 33.935747 -118.413391 268 662ft 84kts
02-Sep-19 14:36 33.929806 -118.440032 246 1254ft 82kts
02-Sep-19 14:38 33.919700 -118.469075 250 1971ft 77kts
02-Sep-19 14:38 33.912337 -118.487321 239 2472ft 80kts
02-Sep-19 14:39 33.903189 -118.511185 244 3177ft 81kts
02-Sep-19 14:40 33.897535 -118.535584 255 3938ft 76kts
02-Sep-19 14:41 33.893391 -118.561314 250 4632ft 79kts
02-Sep-19 14:42 33.892017 -118.588267 275 5303ft 85kts
02-Sep-19 14:43 33.894245 -118.615742 278 5928ft 90kts
02-Sep-19 14:44 33.912154 -118.642503 303 6545ft 104kts
02-Sep-19 14:45 33.928905 -118.671411 295 7176ft 109kts
02-Sep-19 14:46 33.942573 -118.704180 301 7839ft 110kts
02-Sep-19 14:47 33.960401 -118.734567 314 8450ft 113kts
02-Sep-19 14:48 33.984247 -118.759511 329 9058ft 114kts
02-Sep-19 14:49 34.003555 -118.789993 311 9650ft 114kts
02-Sep-19 14:50 34.024706 -118.818756 315 10184ft 117kts
02-Sep-19 14:51 34.047839 -118.847890 314 10712ft 120kts
02-Sep-19 14:52 34.066581 -118.880254 305 11260ft 119kts
02-Sep-19 14:53 34.082227 -118.914558 291 11794ft 117kts
02-Sep-19 14:54 34.092977 -118.952171 290 12241ft 120kts
02-Sep-19 14:55 34.115890 -118.981213 340 12551ft 126kts
02-Sep-19 14:56 34.148634 -118.993354 346 13023ft 123kts
02-Sep-19 14:57 34.174420 -119.023081 314 13374ft 137kts
02-Sep-19 14:58 34.209309 -119.057914 324 13074ft 192kts
02-Sep-19 14:59 34.255949 -119.101171 324 12595ft 209kts
02-Sep-19 15:00 34.299973 -119.142563 324 12662ft 203kts
02-Sep-19 15:01 34.343740 -119.184925 317 12686ft 193kts
02-Sep-19 15:02 34.383349 -119.229702 321 12626ft 198kts
02-Sep-19 15:03 34.425640 -119.273637 321 12639ft 201kts
02-Sep-19 15:04 34.467872 -119.318034 321 12665ft 201kts
02-Sep-19 15:05 34.510173 -119.362946 320 12695ft 201kts
02-Sep-19 15:06 34.552330 -119.408033 320 12727ft 202kts
02-Sep-19 15:07 34.594294 -119.453498 320 12760ft 201kts
02-Sep-19 15:08 34.635961 -119.499229 319 12794ft 202kts
02-Sep-19 15:09 34.677471 -119.545397 319 12824ft 202kts
02-Sep-19 15:10 34.718699 -119.591867 319 12853ft 202kts
02-Sep-19 15:11 34.763340 -119.632402 333 12874ft 200kts
02-Sep-19 15:12 34.812191 -119.665025 333 12893ft 200kts
02-Sep-19 15:13 34.861081 -119.698196 332 12901ft 201kts
02-Sep-19 15:14 34.910016 -119.731983 331 12898ft 203kts
02-Sep-19 15:15 34.957566 -119.768941 323 12889ft 206kts
02-Sep-19 15:16 35.002324 -119.812948 316 12906ft 206kts
02-Sep-19 15:17 35.042693 -119.861537 309 12948ft 202kts
02-Sep-19 15:18 35.078073 -119.913865 303 12980ft 199kts
02-Sep-19 15:19 35.108210 -119.969307 297 13000ft 197kts
02-Sep-19 15:20 35.133557 -120.028631 291 13010ft 196kts
02-Sep-19 15:21 35.153466 -120.090458 285 13022ft 194kts
02-Sep-19 15:22 35.167769 -120.154060 279 13033ft 193kts
02-Sep-19 15:23 35.176355 -120.218611 273 13045ft 192kts
02-Sep-19 15:24 35.179211 -120.283711 267 13055ft 191kts
02-Sep-19 15:25 35.176308 -120.348485 261 13065ft 190kts
02-Sep-19 15:26 35.183766 -120.412391 287 13063ft 195kts
02-Sep-19 15:27 35.224540 -120.454673 328 13040ft 202kts
02-Sep-19 15:28 35.300481 -120.507444 327 13061ft 201kts
02-Sep-19 15:29 35.496004 -120.646249 327 13097ft 201kts
02-Sep-19 15:30 35.583147 -120.708869 326 13116ft 202kts
02-Sep-19 15:31 35.631539 -120.744359 326 13131ft 202kts
02-Sep-19 15:32 35.679662 -120.780228 325 13148ft 202kts
02-Sep-19 15:33 35.726357 -120.815600 325 13165ft 202kts
02-Sep-19 15:34 35.774007 -120.852268 325 13183ft 202kts
02-Sep-19 15:35 35.812865 -120.882608 324 13197ft 202kts
02-Sep-19 15:36 35.966586 -121.004647 323 13261ft 202kts
02-Sep-19 15:37 36.013792 -121.042754 322 13278ft 202kts
02-Sep-19 15:38 36.066040 -121.068585 345 13285ft 208kts
02-Sep-19 15:39 36.123244 -121.082100 345 13306ft 208kts
02-Sep-19 15:40 36.179083 -121.095740 345 13316ft 208kts
02-Sep-19 15:41 36.236000 -121.110102 344 13327ft 208kts
02-Sep-19 15:42 36.292070 -121.127188 322 13320ft 203kts
02-Sep-19 15:43 36.339214 -121.160601 324 13710ft 190kts
02-Sep-19 15:44 36.386289 -121.196133 322 13323ft 217kts
02-Sep-19 15:45 36.434203 -121.234591 320 13603ft 200kts
02-Sep-19 15:46 36.479863 -121.273381 318 13739ft 197kts
02-Sep-19 15:47 36.524146 -121.313366 316 13854ft 196kts
02-Sep-19 15:48 36.567164 -121.354686 315 13962ft 195kts
02-Sep-19 15:49 36.609281 -121.397697 313 14069ft 195kts
02-Sep-19 15:50 36.650095 -121.442074 311 14174ft 194kts
02-Sep-19 15:51 36.689748 -121.487827 309 14275ft 194kts
02-Sep-19 15:52 36.728007 -121.534764 308 14371ft 193kts
02-Sep-19 15:53 36.766253 -121.584947 306 13852ft 219kts
02-Sep-19 15:54 36.808881 -121.644645 306 13035ft 221kts
02-Sep-19 15:55 36.846706 -121.699133 303 13238ft 201kts
02-Sep-19 15:56 36.882134 -121.752624 302 13315ft 197kts
02-Sep-19 15:57 36.920680 -121.814289 303 11764ft 239kts
02-Sep-19 15:58 36.958373 -121.865735 304 10588ft 182kts
02-Sep-19 15:59 36.987363 -121.912641 294 10514ft 164kts
02-Sep-19 16:00 37.007895 -121.964705 291 10169ft 167kts
02-Sep-19 16:01 37.037113 -122.010277 317 9539ft 179kts
02-Sep-19 16:02 37.077920 -122.045527 322 7591ft 172kts
02-Sep-19 16:03 37.119583 -122.063920 340 6362ft 153kts
02-Sep-19 16:04 37.157937 -122.072002 348 5494ft 128kts
02-Sep-19 16:05 37.191498 -122.072591 351 4755ft 114kts
02-Sep-19 16:06 37.227485 -122.070983 355 4317ft 156kts
02-Sep-19 16:07 37.270141 -122.077611 344 4621ft 146kts
02-Sep-19 16:08 37.311543 -122.087171 343 4585ft 155kts
02-Sep-19 16:09 37.354976 -122.100983 343 4270ft 164kts
02-Sep-19 16:10 37.398378 -122.115684 342 4209ft 154kts
02-Sep-19 16:11 37.437860 -122.125083 343 3478ft 129kts
02-Sep-19 16:12 37.472858 -122.138563 337 2568ft 150kts
02-Sep-19 16:13 37.510510 -122.163020 326 1641ft 139kts
02-Sep-19 16:14 37.536491 -122.199439 310 1735ft 155kts
02-Sep-19 16:15 37.566194 -122.245455 303 2073ft 169kts
02-Sep-19 16:16 37.581530 -122.280482 291 1500ft 80kts
02-Sep-19 16:17 37.591010 -122.303277 296 1467ft 73kts
02-Sep-19 16:18 37.600007 -122.324473 294 847ft 70kts
02-Sep-19 16:19 37.608293 -122.344467 292 377ft 58kts
02-Sep-19 16:20 37.615542 -122.361921 292 34ft 49kts
02-Sep-19 16:21 37.616893 -122.367591 207 20ft 3kts

Navigation Log

Ident Type
Flight plan parsing failed, navigation log unavailable